createdAt,value
2019-02-27T00:00:45.147Z,7.41
2019-02-27T00:03:13.947Z,7.41
2019-02-27T00:05:42.548Z,7.43
2019-02-27T00:08:11.125Z,7.34
2019-02-27T00:10:39.889Z,7.16
2019-02-27T00:13:08.613Z,7.22
2019-02-27T00:15:38.047Z,7.01
2019-02-27T00:18:07.265Z,6.61
2019-02-27T00:20:37.056Z,6.34
2019-02-27T00:23:06.317Z,6.23
2019-02-27T00:25:36.083Z,5.96
2019-02-27T00:28:05.348Z,5.65
2019-02-27T00:30:37.962Z,5.29
2019-02-27T00:33:04.536Z,5.00
2019-02-27T00:35:38.855Z,4.94
2019-02-27T00:38:03.454Z,5.01
2019-02-27T00:40:31.986Z,5.22
2019-02-27T00:43:02.853Z,5.83
2019-02-27T00:45:31.613Z,6.46
2019-02-27T00:48:00.096Z,6.68
2019-02-27T00:50:28.631Z,6.47
2019-02-27T00:53:00.877Z,6.50
2019-02-27T00:55:30.871Z,6.21
2019-02-27T00:57:59.446Z,5.62
2019-02-27T01:00:28.033Z,5.00
2019-02-27T01:02:56.735Z,4.55
2019-02-27T01:05:25.378Z,4.22
2019-02-27T01:07:54.792Z,4.25
2019-02-27T01:10:23.434Z,4.52
2019-02-27T01:12:52.650Z,5.19
2019-02-27T01:15:21.257Z,5.69
2019-02-27T01:17:49.893Z,6.15
2019-02-27T01:20:18.484Z,6.34
2019-02-27T01:22:47.062Z,6.16
2019-02-27T01:25:15.948Z,6.09
2019-02-27T01:27:44.559Z,6.18
2019-02-27T01:30:15.571Z,5.76
2019-02-27T01:32:44.268Z,5.12
2019-02-27T01:35:17.502Z,4.56
2019-02-27T01:37:44.333Z,4.17
2019-02-27T01:40:17.909Z,4.07
2019-02-27T01:42:46.643Z,4.44
2019-02-27T01:45:20.650Z,5.08
2019-02-27T01:47:46.513Z,5.54
2019-02-27T01:50:29.731Z,5.56
2019-02-27T01:52:58.252Z,5.83
2019-02-27T01:55:28.313Z,5.92
2019-02-27T01:57:57.055Z,5.90
2019-02-27T02:00:25.855Z,5.89
2019-02-27T02:02:55.383Z,5.96
2019-02-27T02:05:27.160Z,5.74
2019-02-27T02:07:55.666Z,5.07
2019-02-27T02:10:27.991Z,4.58
2019-02-27T02:13:18.659Z,4.12
2019-02-27T02:16:02.175Z,4.15
2019-02-27T02:18:51.960Z,4.50
2019-02-27T02:21:23.570Z,5.08
2019-02-27T02:24:20.906Z,5.29
2019-02-27T02:27:08.278Z,5.30
2019-02-27T02:29:54.416Z,5.45
2019-02-27T02:32:25.927Z,5.45
2019-02-27T02:35:14.795Z,5.25
2019-02-27T02:37:48.469Z,5.28
2019-02-27T02:40:32.107Z,5.20
2019-02-27T02:43:41.424Z,4.70
2019-02-27T02:46:13.322Z,4.03
2019-02-27T02:49:08.029Z,3.61
2019-02-27T02:51:50.414Z,3.59
2019-02-27T02:54:27.934Z,4.09
2019-02-27T02:57:08.298Z,4.68
2019-02-27T03:00:04.214Z,4.90
2019-02-27T03:02:42.215Z,4.97
2019-02-27T03:05:24.307Z,5.06
2019-02-27T03:08:01.801Z,5.16
2019-02-27T03:10:42.569Z,5.08
2019-02-27T03:13:24.340Z,5.17
2019-02-27T03:16:17.012Z,4.92
2019-02-27T03:19:05.063Z,4.02
2019-02-27T03:21:42.557Z,3.23
2019-02-27T03:24:45.977Z,3.03
2019-02-27T03:27:17.488Z,3.24
2019-02-27T03:29:54.636Z,3.93
2019-02-27T03:32:26.131Z,4.29
2019-02-27T03:35:27.983Z,4.47
2019-02-27T03:37:57.919Z,4.82
2019-02-27T03:40:48.965Z,5.04
2019-02-27T03:43:38.350Z,5.15
2019-02-27T03:46:24.683Z,4.91
2019-02-27T03:49:04.642Z,4.92
2019-02-27T03:51:48.432Z,4.57
2019-02-27T03:54:21.315Z,3.88
2019-02-27T03:56:56.252Z,3.19
2019-02-27T03:59:27.926Z,2.96
2019-02-27T04:02:06.308Z,3.30
2019-02-27T04:04:50.523Z,3.86
2019-02-27T04:07:25.125Z,4.29
2019-02-27T04:09:55.399Z,4.41
2019-02-27T04:12:23.883Z,4.58
2019-02-27T04:14:52.511Z,4.60
2019-02-27T04:17:27.832Z,4.79
2019-02-27T04:19:57.767Z,4.86
2019-02-27T04:22:26.795Z,4.80
2019-02-27T04:24:56.779Z,4.97
2019-02-27T04:27:25.763Z,4.52
2019-02-27T04:29:54.445Z,3.70
2019-02-27T04:32:23.080Z,3.04
2019-02-27T04:34:51.598Z,2.97
2019-02-27T04:37:20.411Z,3.19
2019-02-27T04:39:49.636Z,3.63
2019-02-27T04:42:18.191Z,4.11
2019-02-27T04:44:46.706Z,4.48
2019-02-27T04:47:15.500Z,4.67
2019-02-27T04:49:44.072Z,4.78
2019-02-27T04:52:12.554Z,4.90
2019-02-27T04:54:42.130Z,4.93
2019-02-27T04:57:10.967Z,4.74
2019-02-27T04:59:39.554Z,4.80
2019-02-27T05:02:08.228Z,4.31
2019-02-27T05:04:36.842Z,3.56
2019-02-27T05:07:05.411Z,3.17
2019-02-27T05:09:34.670Z,3.02
2019-02-27T05:12:03.173Z,3.24
2019-02-27T05:14:31.746Z,3.50
2019-02-27T05:17:00.597Z,3.93
2019-02-27T05:19:29.217Z,4.13
2019-02-27T05:21:57.686Z,4.23
2019-02-27T05:24:29.211Z,4.31
2019-02-27T05:26:58.121Z,4.54
2019-02-27T05:29:28.224Z,4.74
2019-02-27T05:31:56.752Z,4.49
2019-02-27T05:34:25.200Z,4.49
2019-02-27T05:36:53.810Z,4.40
2019-02-27T05:39:22.256Z,3.78
2019-02-27T05:41:50.889Z,3.02
2019-02-27T05:44:22.118Z,2.71
2019-02-27T05:46:49.661Z,3.00
2019-02-27T05:49:18.212Z,3.52
2019-02-27T05:51:46.654Z,3.83
2019-02-27T05:54:15.388Z,4.01
2019-02-27T05:56:43.882Z,3.97
2019-02-27T05:59:12.475Z,4.21
2019-02-27T06:01:41.011Z,4.40
2019-02-27T06:04:09.666Z,4.59
2019-02-27T06:06:38.257Z,4.44
2019-02-27T06:09:10.079Z,4.36
2019-02-27T06:11:37.492Z,4.35
2019-02-27T06:14:06.066Z,3.84
2019-02-27T06:16:37.187Z,3.16
2019-02-27T06:19:06.122Z,2.67
2019-02-27T06:21:38.871Z,2.62
2019-02-27T06:24:11.617Z,2.94
2019-02-27T06:26:37.838Z,3.46
2019-02-27T06:29:06.394Z,3.77
2019-02-27T06:31:38.795Z,3.97
2019-02-27T06:34:05.286Z,4.05
2019-02-27T06:36:33.945Z,4.29
2019-02-27T06:39:02.574Z,4.37
2019-02-27T06:41:31.601Z,4.35
2019-02-27T06:44:01.606Z,4.28
2019-02-27T06:46:30.440Z,4.41
2019-02-27T06:48:58.918Z,4.11
2019-02-27T06:51:27.441Z,3.58
2019-02-27T06:53:55.996Z,2.99
2019-02-27T06:56:24.588Z,2.80
2019-02-27T06:58:53.110Z,3.03
2019-02-27T07:01:21.766Z,3.53
2019-02-27T07:03:50.365Z,3.89
2019-02-27T07:06:21.293Z,3.99
2019-02-27T07:08:49.236Z,4.14
2019-02-27T07:11:17.792Z,4.42
2019-02-27T07:13:46.495Z,4.61
2019-02-27T07:16:15.036Z,4.63
2019-02-27T07:18:43.632Z,4.48
2019-02-27T07:21:12.371Z,4.62
2019-02-27T07:23:41.046Z,4.36
2019-02-27T07:26:09.683Z,4.02
2019-02-27T07:28:38.193Z,3.57
2019-02-27T07:31:06.844Z,3.45
2019-02-27T07:33:37.982Z,3.76
2019-02-27T07:36:05.763Z,4.22
2019-02-27T07:38:34.333Z,4.70
2019-02-27T07:41:03.105Z,5.19
2019-02-27T07:43:32.329Z,5.65
2019-02-27T07:46:00.941Z,6.12
2019-02-27T07:48:29.484Z,6.56
2019-02-27T07:50:58.020Z,6.98
2019-02-27T07:53:26.663Z,7.52
2019-02-27T07:55:55.350Z,8.16
2019-02-27T07:58:23.756Z,8.60
2019-02-27T08:00:52.370Z,8.73
2019-02-27T08:03:20.951Z,8.73
2019-02-27T08:05:49.441Z,8.85
2019-02-27T08:08:18.061Z,8.98
2019-02-27T08:10:46.672Z,9.28
2019-02-27T08:13:15.464Z,9.57
2019-02-27T08:15:44.143Z,9.73
2019-02-27T08:18:12.871Z,10.01
2019-02-27T08:20:41.626Z,10.35
2019-02-27T08:23:10.275Z,10.62
2019-02-27T08:25:38.776Z,10.97
2019-02-27T08:28:07.410Z,11.41
2019-02-27T08:30:35.996Z,11.79
2019-02-27T08:33:08.132Z,12.03
2019-02-27T08:35:35.509Z,12.07
2019-02-27T08:38:04.944Z,12.17
2019-02-27T08:40:33.586Z,12.21
2019-02-27T08:43:03.106Z,12.58
2019-02-27T08:45:31.696Z,12.91
2019-02-27T08:48:00.251Z,13.22
2019-02-27T08:50:31.498Z,13.38
2019-02-27T08:52:59.069Z,13.53
2019-02-27T08:55:27.692Z,13.63
2019-02-27T08:57:57.102Z,13.80
2019-02-27T09:00:28.785Z,14.06
2019-02-27T09:03:02.510Z,14.37
2019-02-27T09:05:27.718Z,14.63
2019-02-27T09:07:56.311Z,14.62
2019-02-27T09:10:30.593Z,14.56
2019-02-27T09:13:05.518Z,14.64
2019-02-27T09:15:28.801Z,14.89
2019-02-27T09:17:59.155Z,15.20
2019-02-27T09:20:27.675Z,15.55
2019-02-27T09:22:56.132Z,15.88
2019-02-27T09:25:25.049Z,15.93
2019-02-27T09:27:53.727Z,15.78
2019-02-27T09:30:29.331Z,15.83
2019-02-27T09:32:56.396Z,15.72
2019-02-27T09:35:24.994Z,15.46
2019-02-27T09:38:12.943Z,15.42
2019-02-27T09:40:41.449Z,15.42
2019-02-27T09:43:11.622Z,15.51
2019-02-27T09:45:40.501Z,15.61
2019-02-27T09:48:09.002Z,15.80
2019-02-27T09:50:48.936Z,15.84
2019-02-27T09:53:17.721Z,15.94
2019-02-27T09:55:46.320Z,16.11
2019-02-27T09:58:15.021Z,16.23
2019-02-27T10:00:48.311Z,16.43
2019-02-27T10:03:20.034Z,16.41
2019-02-27T10:05:47.850Z,16.49
2019-02-27T10:08:16.827Z,16.69
2019-02-27T10:10:46.080Z,16.85
2019-02-27T10:13:14.796Z,16.95
2019-02-27T10:15:43.422Z,17.13
2019-02-27T10:18:11.996Z,17.51
2019-02-27T10:20:40.587Z,17.75
2019-02-27T10:23:09.171Z,18.05
2019-02-27T10:25:37.971Z,18.09
2019-02-27T10:28:06.790Z,18.01
2019-02-27T10:30:35.393Z,18.00
2019-02-27T10:33:04.218Z,17.95
2019-02-27T10:35:34.674Z,18.12
2019-02-27T10:38:03.229Z,18.37
2019-02-27T10:40:31.859Z,18.75
2019-02-27T10:43:00.530Z,18.85
2019-02-27T10:45:29.115Z,18.70
2019-02-27T10:47:57.594Z,18.66
2019-02-27T10:50:26.199Z,18.40
2019-02-27T10:52:54.782Z,18.42
2019-02-27T10:55:24.489Z,18.40
2019-02-27T10:57:53.274Z,18.54
2019-02-27T11:00:31.179Z,18.57
2019-02-27T11:03:03.546Z,18.77
2019-02-27T11:05:37.636Z,18.86
2019-02-27T11:08:06.349Z,18.98
2019-02-27T11:10:35.032Z,19.00
2019-02-27T11:13:06.698Z,19.15
2019-02-27T11:15:34.921Z,19.30
2019-02-27T11:18:05.627Z,19.34
2019-02-27T11:20:34.718Z,19.46
2019-02-27T11:23:06.400Z,19.58
2019-02-27T11:25:33.674Z,19.55
2019-02-27T11:28:02.288Z,19.76
2019-02-27T11:30:38.667Z,19.97
2019-02-27T11:33:07.323Z,20.14
2019-02-27T11:35:35.943Z,20.17
2019-02-27T11:38:04.931Z,20.20
2019-02-27T11:40:33.564Z,20.45
2019-02-27T11:43:06.358Z,20.46
2019-02-27T11:45:33.186Z,20.53
2019-02-27T11:48:01.725Z,20.65
2019-02-27T11:50:30.304Z,20.80
2019-02-27T11:53:01.924Z,20.92
2019-02-27T11:55:29.173Z,20.77
2019-02-27T11:57:58.083Z,20.84
2019-02-27T12:00:31.343Z,20.90
2019-02-27T12:03:00.099Z,20.86
2019-02-27T12:05:33.730Z,20.83
2019-02-27T12:07:59.363Z,20.92
2019-02-27T12:10:32.420Z,21.00
2019-02-27T12:13:01.655Z,21.00
2019-02-27T12:15:30.398Z,20.98
2019-02-27T12:18:00.439Z,20.86
2019-02-27T12:20:29.353Z,20.83
2019-02-27T12:22:58.058Z,20.80
2019-02-27T12:25:29.232Z,20.91
2019-02-27T12:27:57.569Z,21.01
2019-02-27T12:30:28.391Z,21.05
2019-02-27T12:32:57.323Z,20.94
2019-02-27T12:35:36.219Z,20.94
2019-02-27T12:38:08.242Z,20.91
2019-02-27T12:40:36.670Z,20.99
2019-02-27T12:43:05.711Z,21.21
2019-02-27T12:45:34.472Z,21.52
2019-02-27T12:48:03.053Z,21.70
2019-02-27T12:50:31.742Z,21.76
2019-02-27T12:53:00.449Z,21.89
2019-02-27T12:55:29.020Z,21.92
2019-02-27T12:57:57.569Z,21.90
2019-02-27T13:00:30.527Z,21.93
2019-02-27T13:02:59.685Z,21.84
2019-02-27T13:05:28.807Z,21.93
2019-02-27T13:07:57.389Z,22.03
2019-02-27T13:10:34.196Z,22.05
2019-02-27T13:12:59.782Z,22.11
2019-02-27T13:15:30.121Z,22.05
2019-02-27T13:17:59.014Z,22.07
2019-02-27T13:20:28.731Z,22.01
2019-02-27T13:22:57.345Z,22.10
2019-02-27T13:25:25.972Z,22.11
2019-02-27T13:27:54.469Z,22.06
2019-02-27T13:30:24.355Z,21.93
2019-02-27T13:32:53.229Z,21.88
2019-02-27T13:35:23.110Z,21.87
2019-02-27T13:37:52.568Z,21.94
2019-02-27T13:40:29.240Z,22.00
2019-02-27T13:42:58.034Z,21.98
2019-02-27T13:45:31.069Z,22.01
2019-02-27T13:48:04.948Z,22.01
2019-02-27T13:50:30.239Z,22.10
2019-02-27T13:52:58.816Z,22.06
2019-02-27T13:55:27.373Z,22.10
2019-02-27T13:57:58.783Z,22.07
2019-02-27T14:00:30.422Z,22.04
2019-02-27T14:02:59.085Z,21.99
2019-02-27T14:05:29.439Z,21.99
2019-02-27T14:07:59.302Z,22.00
2019-02-27T14:10:34.564Z,21.99
2019-02-27T14:13:03.292Z,21.85
2019-02-27T14:15:32.093Z,21.92
2019-02-27T14:18:00.844Z,22.18
2019-02-27T14:20:29.589Z,22.64
2019-02-27T14:22:58.369Z,23.06
2019-02-27T14:25:32.598Z,23.14
2019-02-27T14:27:59.155Z,23.10
2019-02-27T14:30:36.645Z,23.11
2019-02-27T14:33:05.305Z,23.41
2019-02-27T14:35:36.331Z,23.69
2019-02-27T14:38:04.335Z,23.82
2019-02-27T14:40:37.782Z,23.93
2019-02-27T14:43:03.248Z,24.27
2019-02-27T14:45:31.851Z,23.97
2019-02-27T14:48:00.500Z,23.66
2019-02-27T14:50:33.587Z,23.70
2019-02-27T14:52:59.517Z,23.94
2019-02-27T14:55:28.237Z,24.15
2019-02-27T14:57:56.895Z,24.34
2019-02-27T15:00:30.917Z,24.41
2019-02-27T15:02:59.548Z,24.39
2019-02-27T15:05:28.341Z,24.61
2019-02-27T15:07:56.993Z,24.72
2019-02-27T15:10:26.078Z,24.76
2019-02-27T15:12:55.641Z,24.79
2019-02-27T15:15:32.134Z,24.80
2019-02-27T15:18:01.463Z,24.58
2019-02-27T15:20:30.753Z,24.47
2019-02-27T15:22:59.483Z,24.61
2019-02-27T15:25:28.299Z,24.30
2019-02-27T15:27:58.821Z,23.95
2019-02-27T15:30:32.404Z,23.76
2019-02-27T15:33:04.335Z,23.70
2019-02-27T15:35:31.325Z,23.69
2019-02-27T15:38:00.161Z,23.89
2019-02-27T15:40:30.333Z,23.86
2019-02-27T15:42:59.022Z,23.84
2019-02-27T15:45:28.632Z,23.82
2019-02-27T15:47:57.460Z,23.73
2019-02-27T15:50:30.138Z,23.57
2019-02-27T15:53:00.107Z,23.39
2019-02-27T15:55:32.761Z,23.60
2019-02-27T15:57:59.427Z,23.73
2019-02-27T16:00:28.898Z,23.75
2019-02-27T16:02:57.609Z,23.69
2019-02-27T16:05:30.028Z,23.42
2019-02-27T16:07:56.685Z,23.25
2019-02-27T16:10:26.508Z,23.26
2019-02-27T16:12:59.669Z,23.08
2019-02-27T16:15:25.771Z,22.96
2019-02-27T16:17:54.538Z,23.19
2019-02-27T16:20:26.808Z,23.23
2019-02-27T16:22:55.252Z,23.22
2019-02-27T16:25:24.807Z,23.28
2019-02-27T16:27:53.384Z,23.24
2019-02-27T16:30:24.893Z,22.98
2019-02-27T16:32:53.744Z,22.60
2019-02-27T16:35:22.528Z,22.41
2019-02-27T16:37:56.582Z,22.41
2019-02-27T16:40:22.797Z,22.35
2019-02-27T16:42:51.704Z,22.17
2019-02-27T16:45:22.713Z,22.03
2019-02-27T16:47:53.974Z,21.99
2019-02-27T16:50:24.748Z,21.63
2019-02-27T16:52:57.389Z,21.32
2019-02-27T16:55:28.004Z,21.25
2019-02-27T16:57:57.589Z,21.22
2019-02-27T17:00:28.947Z,21.06
2019-02-27T17:02:57.583Z,20.91
2019-02-27T17:05:26.277Z,20.66
2019-02-27T17:08:00.207Z,20.36
2019-02-27T17:10:32.978Z,20.27
2019-02-27T17:13:01.580Z,20.03
2019-02-27T17:15:34.724Z,19.72
2019-02-27T17:18:00.523Z,19.53
2019-02-27T17:20:29.584Z,19.50
2019-02-27T17:22:58.395Z,19.42
2019-02-27T17:25:30.008Z,19.32
2019-02-27T17:27:57.419Z,19.12
2019-02-27T17:30:28.466Z,18.97
2019-02-27T17:32:57.001Z,18.95
2019-02-27T17:35:26.825Z,18.73
2019-02-27T17:37:55.439Z,18.51
2019-02-27T17:40:24.139Z,18.33
2019-02-27T17:42:53.506Z,18.12
2019-02-27T17:45:25.396Z,17.94
2019-02-27T17:47:54.092Z,17.78
2019-02-27T17:50:23.110Z,17.69
2019-02-27T17:52:51.892Z,17.63
2019-02-27T17:55:20.538Z,17.53
2019-02-27T17:57:49.486Z,17.50
2019-02-27T18:00:22.231Z,17.45
2019-02-27T18:02:50.839Z,17.22
2019-02-27T18:05:22.356Z,17.01
2019-02-27T18:07:49.808Z,16.85
2019-02-27T18:10:18.398Z,16.68
2019-02-27T18:12:47.032Z,16.56
2019-02-27T18:15:21.418Z,16.55
2019-02-27T18:17:50.063Z,16.59
2019-02-27T18:20:24.452Z,16.56
2019-02-27T18:22:50.291Z,16.51
2019-02-27T18:25:19.326Z,16.41
2019-02-27T18:27:48.163Z,16.21
2019-02-27T18:30:21.121Z,16.10
2019-02-27T18:32:50.065Z,16.18
2019-02-27T18:35:19.589Z,15.88
2019-02-27T18:37:53.338Z,15.84
2019-02-27T18:40:19.670Z,15.61
2019-02-27T18:42:48.286Z,15.76
2019-02-27T18:45:18.684Z,15.64
2019-02-27T18:47:47.326Z,15.23
2019-02-27T18:50:16.569Z,15.23
2019-02-27T18:52:45.205Z,15.40
2019-02-27T18:55:15.451Z,15.52
2019-02-27T18:57:47.226Z,15.48
2019-02-27T19:00:21.206Z,15.55
2019-02-27T19:02:52.015Z,15.47
2019-02-27T19:05:22.083Z,15.18
2019-02-27T19:07:53.621Z,15.19
2019-02-27T19:10:21.371Z,15.02
2019-02-27T19:12:49.948Z,15.02
2019-02-27T19:15:23.678Z,15.00
2019-02-27T19:17:52.372Z,15.01
2019-02-27T19:20:29.803Z,14.92
2019-02-27T19:23:00.347Z,14.81
2019-02-27T19:25:34.328Z,14.68
2019-02-27T19:27:59.045Z,14.70
2019-02-27T19:30:28.061Z,14.66
2019-02-27T19:33:01.582Z,14.60
2019-02-27T19:35:27.717Z,14.62
2019-02-27T19:37:56.266Z,14.64
2019-02-27T19:40:30.076Z,14.55
2019-02-27T19:42:57.324Z,14.55
2019-02-27T19:45:26.006Z,14.42
2019-02-27T19:47:55.867Z,14.39
2019-02-27T19:50:24.797Z,14.39
2019-02-27T19:52:53.474Z,14.31
2019-02-27T19:55:26.266Z,14.29
2019-02-27T19:57:52.747Z,14.20
2019-02-27T20:00:33.747Z,14.12
2019-02-27T20:03:01.534Z,14.17
2019-02-27T20:05:30.303Z,14.16
2019-02-27T20:07:58.952Z,14.22
2019-02-27T20:10:30.967Z,14.22
2019-02-27T20:12:57.994Z,14.14
2019-02-27T20:15:27.561Z,14.01
2019-02-27T20:17:56.357Z,13.93
2019-02-27T20:20:25.862Z,13.90
2019-02-27T20:22:55.456Z,13.89
2019-02-27T20:25:29.205Z,13.82
2019-02-27T20:27:58.874Z,13.75
2019-02-27T20:30:27.600Z,13.48
2019-02-27T20:32:56.415Z,13.27
2019-02-27T20:35:24.947Z,13.21
2019-02-27T20:37:53.584Z,13.24
2019-02-27T20:40:22.313Z,13.05
2019-02-27T20:42:54.842Z,12.76
2019-02-27T20:45:22.319Z,12.60
2019-02-27T20:47:57.771Z,12.46
2019-02-27T20:50:35.293Z,12.46
2019-02-27T20:53:04.919Z,12.33
2019-02-27T20:55:33.503Z,12.28
2019-02-27T20:58:02.130Z,12.26
2019-02-27T21:00:36.119Z,12.19
2019-02-27T21:03:02.585Z,12.21
2019-02-27T21:05:31.776Z,12.21
2019-02-27T21:08:01.956Z,12.23
2019-02-27T21:10:33.213Z,12.13
2019-02-27T21:13:01.918Z,12.15
2019-02-27T21:15:32.589Z,12.11
2019-02-27T21:18:00.978Z,12.11
2019-02-27T21:20:33.274Z,12.11
2019-02-27T21:23:02.110Z,12.16
2019-02-27T21:25:30.579Z,12.26
2019-02-27T21:27:59.153Z,12.19
2019-02-27T21:30:27.766Z,12.06
2019-02-27T21:32:56.392Z,12.07
2019-02-27T21:35:28.922Z,12.02
2019-02-27T21:37:55.383Z,11.84
2019-02-27T21:40:23.930Z,11.80
2019-02-27T21:42:52.539Z,11.77
2019-02-27T21:45:22.357Z,11.67
2019-02-27T21:47:52.651Z,11.67
2019-02-27T21:50:23.520Z,11.60
2019-02-27T21:52:54.325Z,11.60
2019-02-27T21:55:22.764Z,11.51
2019-02-27T21:57:51.448Z,11.48
2019-02-27T22:00:28.900Z,11.37
2019-02-27T22:03:04.008Z,11.27
2019-02-27T22:05:29.068Z,11.20
2019-02-27T22:07:57.769Z,10.99
2019-02-27T22:10:26.499Z,10.97
2019-02-27T22:12:55.108Z,10.94
2019-02-27T22:15:28.753Z,10.92
2019-02-27T22:17:57.447Z,10.85
2019-02-27T22:20:27.005Z,10.86
2019-02-27T22:22:55.601Z,10.84
2019-02-27T22:25:24.250Z,10.83
2019-02-27T22:27:52.847Z,10.77
2019-02-27T22:30:22.480Z,10.71
2019-02-27T22:32:51.177Z,10.60
2019-02-27T22:35:19.771Z,10.52
2019-02-27T22:37:51.587Z,10.53
2019-02-27T22:40:23.419Z,10.52
2019-02-27T22:42:58.898Z,10.58
2019-02-27T22:45:27.580Z,10.56
2019-02-27T22:47:57.585Z,10.51
2019-02-27T22:50:26.246Z,10.42
2019-02-27T22:52:55.432Z,10.32
2019-02-27T22:55:24.126Z,10.34
2019-02-27T22:57:54.828Z,10.21
2019-02-27T23:00:56.252Z,10.22
2019-02-27T23:03:37.180Z,10.17
2019-02-27T23:06:06.246Z,10.03
2019-02-27T23:08:35.099Z,10.03
2019-02-27T23:11:03.851Z,9.92
2019-02-27T23:13:32.570Z,9.91
2019-02-27T23:16:01.186Z,9.90
2019-02-27T23:18:30.603Z,9.87
2019-02-27T23:20:59.267Z,9.93
2019-02-27T23:23:27.822Z,9.92
2019-02-27T23:25:56.530Z,9.94
2019-02-27T23:28:25.152Z,9.93
2019-02-27T23:30:55.950Z,10.19
2019-02-27T23:33:24.741Z,10.20
2019-02-27T23:35:53.332Z,10.19
2019-02-27T23:38:21.922Z,10.07
2019-02-27T23:40:50.514Z,10.00
2019-02-27T23:43:19.732Z,9.93
2019-02-27T23:45:48.728Z,9.92
2019-02-27T23:48:17.261Z,9.89
2019-02-27T23:50:45.832Z,9.76
2019-02-27T23:53:15.249Z,9.65
2019-02-27T23:55:44.598Z,9.58
2019-02-27T23:58:14.992Z,9.46
